Time;durP1;ratioP1;P1;durP2;ratioP2;P2;SDS_P1;SDS_P2;PMS_P1;PMS_P2;Temp;Humidity;BMP_temperature;BMP_pressure;BME280_temperature;BME280_humidity;BME280_pressure;Samples;Min_cycle;Max_cycle;Signal;HPM_P1;HPM_P2
2022/07/11 00:00:52;;;;;;;6.05;1.25;;;;;;;-141.50;100.00;63355.56;5040721;28;20072;-81
2022/07/11 00:03:19;;;;;;;3.88;1.27;;;;;;;-141.50;100.00;63355.56;5058807;28;20061;-80
2022/07/11 00:05:46;;;;;;;3.67;1.10;;;;;;;-141.50;100.00;63355.56;5062730;28;20111;-81
2022/07/11 00:08:13;;;;;;;3.75;1.30;;;;;;;-141.50;100.00;63355.56;5058449;28;20049;-79
2022/07/11 00:10:40;;;;;;;3.53;1.00;;;;;;;-141.50;100.00;63355.56;5061709;28;20045;-79
2022/07/11 00:13:06;;;;;;;2.40;1.02;;;;;;;-141.50;100.00;63355.56;5056911;28;20049;-79
2022/07/11 00:15:33;;;;;;;3.97;1.50;;;;;;;-141.50;100.00;63355.56;5054653;28;20060;-80
2022/07/11 00:18:00;;;;;;;2.58;1.10;;;;;;;-141.50;100.00;63355.56;5053927;28;20049;-80
2022/07/11 00:20:29;;;;;;;3.50;1.15;;;;;;;-141.50;100.00;63355.56;5053106;28;20569;-79
2022/07/11 00:22:56;;;;;;;7.72;1.15;;;;;;;-141.50;100.00;63355.56;5052540;28;20140;-79
2022/07/11 00:25:23;;;;;;;7.15;1.95;;;;;;;-141.50;100.00;63355.56;5053121;28;20099;-79
2022/07/11 00:27:49;;;;;;;4.70;1.13;;;;;;;-141.50;100.00;63355.56;5051651;28;20049;-80
2022/07/11 00:30:17;;;;;;;3.78;1.20;;;;;;;-141.50;100.00;63355.56;5051180;28;20068;-80
2022/07/11 00:32:44;;;;;;;5.20;1.40;;;;;;;-141.50;100.00;63355.56;5050855;28;20045;-78
2022/07/11 00:35:11;;;;;;;7.50;1.25;;;;;;;-141.50;100.00;63355.56;5050332;28;20061;-79
2022/07/11 00:37:38;;;;;;;7.18;1.30;;;;;;;-141.50;100.00;63355.56;5051244;28;20049;-80
2022/07/11 00:40:05;;;;;;;4.72;1.20;;;;;;;-141.50;100.00;63355.56;5050709;28;20080;-80
2022/07/11 00:42:32;;;;;;;4.43;1.30;;;;;;;-141.50;100.00;63355.56;5050609;28;20122;-80
2022/07/11 00:44:58;;;;;;;6.70;1.40;;;;;;;-141.50;100.00;63355.56;5050892;28;20751;-79
2022/07/11 00:47:25;;;;;;;9.02;1.45;;;;;;;-141.50;100.00;63355.56;5051035;28;20542;-79
2022/07/11 00:49:52;;;;;;;2.97;1.33;;;;;;;-141.50;100.00;63355.56;5050986;28;20148;-79
2022/07/11 00:52:19;;;;;;;4.18;1.13;;;;;;;-141.50;100.00;63355.56;5051995;28;20053;-80
2022/07/11 00:54:47;;;;;;;5.60;1.30;;;;;;;-141.50;100.00;63355.56;5051388;28;20140;-80
2022/07/11 00:57:13;;;;;;;3.97;1.50;;;;;;;-141.50;100.00;63355.56;5055906;28;20072;-79
2022/07/11 00:59:40;;;;;;;4.10;1.20;;;;;;;-141.50;100.00;63355.56;5060961;28;20468;-80
2022/07/11 01:02:07;;;;;;;4.22;1.20;;;;;;;-141.50;100.00;63355.56;5043882;28;20083;-79
2022/07/11 01:04:34;;;;;;;4.53;1.60;;;;;;;-141.50;100.00;63355.56;5058797;28;20107;-80
2022/07/11 01:07:01;;;;;;;3.13;1.40;;;;;;;-141.50;100.00;63355.56;5061665;28;20068;-80
2022/07/11 01:09:28;;;;;;;3.38;1.23;;;;;;;-141.50;100.00;63355.56;5061823;28;20061;-80
2022/07/11 01:11:55;;;;;;;4.82;1.20;;;;;;;-141.50;100.00;63355.56;5068583;28;20045;-79
2022/07/11 01:14:21;;;;;;;7.57;1.50;;;;;;;-141.50;100.00;63355.56;5051916;28;20052;-80
2022/07/11 01:16:49;;;;;;;5.18;1.75;;;;;;;-141.50;100.00;63355.56;5049949;28;20118;-79
2022/07/11 01:19:16;;;;;;;6.53;1.50;;;;;;;-141.50;100.00;63355.56;5067714;28;20056;-80
2022/07/11 01:21:46;;;;;;;2.75;1.38;;;;;;;-141.50;100.00;63355.56;5065788;28;20059;-79
2022/07/11 01:24:12;;;;;;;3.30;1.70;;;;;;;-141.50;100.00;63355.56;5068949;28;20056;-80
2022/07/11 01:26:45;;;;;;;3.22;1.73;;;;;;;-141.50;100.00;63355.56;5070857;28;20053;-79
2022/07/11 01:29:14;;;;;;;6.10;1.95;;;;;;;-141.50;100.00;63355.56;5069719;28;20097;-80
2022/07/11 01:31:42;;;;;;;5.28;1.50;;;;;;;-141.50;100.00;63355.56;5058697;28;20144;-81
2022/07/11 01:34:09;;;;;;;6.63;1.85;;;;;;;-141.50;100.00;63355.56;5056495;28;20084;-78
2022/07/11 01:36:36;;;;;;;4.93;1.60;;;;;;;-141.50;100.00;63355.56;5058784;28;20092;-80
2022/07/11 01:39:03;;;;;;;6.35;1.80;;;;;;;-141.50;100.00;63355.56;5057336;28;20391;-79
2022/07/11 01:41:30;;;;;;;5.22;1.70;;;;;;;-141.50;100.00;63355.56;5058245;28;20397;-80
2022/07/11 01:43:59;;;;;;;5.78;1.60;;;;;;;-141.50;100.00;63355.56;5056566;28;20478;-79
2022/07/11 01:46:26;;;;;;;7.65;1.60;;;;;;;-141.50;100.00;63355.56;5056397;28;20099;-77
2022/07/11 01:48:53;;;;;;;4.28;1.77;;;;;;;-141.50;100.00;63355.56;5022608;28;20132;-77
2022/07/11 01:51:20;;;;;;;4.50;1.50;;;;;;;-141.50;100.00;63355.56;5037349;28;20226;-80
2022/07/11 01:53:46;;;;;;;2.65;1.55;;;;;;;-141.50;100.00;63355.56;5020254;28;20195;-79
2022/07/11 01:56:13;;;;;;;5.18;2.10;;;;;;;-141.50;100.00;63355.56;5055809;28;20095;-77
2022/07/11 01:58:57;;;;;;;4.32;1.80;;;;;;;-141.50;100.00;63355.56;5055750;28;20049;-80
2022/07/11 02:01:24;;;;;;;8.73;2.05;;;;;;;-141.50;100.00;63355.56;5054131;28;20174;-78
2022/07/11 02:03:51;;;;;;;11.38;1.90;;;;;;;-141.50;100.00;63355.56;5053530;28;20053;-79
2022/07/11 02:06:17;;;;;;;7.55;2.28;;;;;;;-141.50;100.00;63355.56;5053014;28;20131;-79
2022/07/11 02:08:44;;;;;;;6.53;1.95;;;;;;;-141.50;100.00;63355.56;5050618;28;20118;-79
2022/07/11 02:11:10;;;;;;;13.65;2.10;;;;;;;-141.50;100.00;63355.56;5052434;28;20140;-78
2022/07/11 02:13:37;;;;;;;3.28;1.70;;;;;;;-141.50;100.00;63355.56;5052113;28;20084;-79
2022/07/11 02:16:04;;;;;;;7.63;2.30;;;;;;;-141.50;100.00;63355.56;5053135;28;20057;-79
2022/07/11 02:18:34;;;;;;;6.18;2.22;;;;;;;-141.50;100.00;63355.56;5052840;28;20741;-79
2022/07/11 02:21:00;;;;;;;8.27;2.88;;;;;;;-141.50;100.00;63355.56;5054857;28;20083;-80
2022/07/11 02:23:28;;;;;;;7.07;2.28;;;;;;;-141.50;100.00;63355.56;5056710;28;20448;-80
2022/07/11 02:25:54;;;;;;;4.90;2.28;;;;;;;-141.50;100.00;63355.56;5058469;28;20076;-80
2022/07/11 02:28:21;;;;;;;5.22;2.08;;;;;;;-141.50;100.00;63355.56;5057031;28;20080;-80
2022/07/11 02:30:47;;;;;;;8.00;2.30;;;;;;;-141.50;100.00;63355.56;5061511;28;20052;-80
2022/07/11 02:33:15;;;;;;;4.15;2.00;;;;;;;-141.50;100.00;63355.56;5076775;28;20052;-80
2022/07/11 02:35:43;;;;;;;5.85;2.10;;;;;;;-141.50;100.00;63355.56;5077952;28;20037;-80
2022/07/11 02:38:10;;;;;;;8.10;2.33;;;;;;;-141.50;100.00;63355.56;5065843;28;20047;-80
2022/07/11 02:40:37;;;;;;;8.40;2.13;;;;;;;-141.50;100.00;63355.56;5055138;28;20072;-79
2022/07/11 02:43:03;;;;;;;5.82;2.15;;;;;;;-141.50;100.00;63355.56;5055213;28;20048;-80
2022/07/11 02:45:30;;;;;;;5.43;2.08;;;;;;;-141.50;100.00;63355.56;5049101;28;20049;-80
2022/07/11 02:47:57;;;;;;;5.43;2.60;;;;;;;-141.50;100.00;63355.56;5055897;28;20121;-79
2022/07/11 02:50:23;;;;;;;4.93;2.38;;;;;;;-141.50;100.00;63355.56;5054566;28;20068;-79
2022/07/11 02:52:50;;;;;;;8.80;2.40;;;;;;;-141.50;100.00;63355.56;5054525;28;20045;-79
2022/07/11 02:55:16;;;;;;;7.57;2.65;;;;;;;-141.50;100.00;63355.56;5055785;28;20061;-80
2022/07/11 02:57:43;;;;;;;7.03;2.20;;;;;;;-141.50;100.00;63355.56;5037700;28;20096;-81
2022/07/11 03:00:13;;;;;;;5.13;2.13;;;;;;;-141.50;100.00;63355.56;5054804;28;20052;-80
2022/07/11 03:02:40;;;;;;;4.88;2.38;;;;;;;-141.50;100.00;63355.56;5055886;28;20079;-79
2022/07/11 03:05:07;;;;;;;4.32;2.33;;;;;;;-141.50;100.00;63355.56;5055484;28;20091;-78
2022/07/11 03:07:34;;;;;;;8.43;2.58;;;;;;;-141.50;100.00;63355.56;5055111;28;20045;-79
2022/07/11 03:10:00;;;;;;;7.13;2.60;;;;;;;-141.50;100.00;63355.56;5054988;28;20133;-80
2022/07/11 03:12:27;;;;;;;7.07;2.58;;;;;;;-141.50;100.00;63355.56;5054772;28;20137;-79
2022/07/11 03:14:53;;;;;;;8.48;2.50;;;;;;;-141.50;100.00;63355.56;5055226;28;20491;-80
2022/07/11 03:17:21;;;;;;;5.35;2.60;;;;;;;-141.50;100.00;63355.56;5055900;28;20129;-78
2022/07/11 03:19:47;;;;;;;9.77;2.53;;;;;;;-141.50;100.00;63355.56;5055979;28;20072;-80
2022/07/11 03:22:15;;;;;;;8.50;2.78;;;;;;;-141.50;100.00;63355.56;5069802;28;20064;-78
2022/07/11 03:24:42;;;;;;;4.10;2.28;;;;;;;-141.50;100.00;63355.56;5069974;28;20052;-80
2022/07/11 03:27:10;;;;;;;10.38;3.08;;;;;;;-141.50;100.00;63355.56;5070566;28;20049;-79
2022/07/11 03:29:40;;;;;;;9.93;2.80;;;;;;;-141.50;100.00;63355.56;5071662;28;20116;-79
2022/07/11 03:32:10;;;;;;;11.18;3.10;;;;;;;-141.50;100.00;63355.56;5069302;28;20124;-79
2022/07/11 03:34:37;;;;;;;9.75;3.38;;;;;;;-141.50;100.00;63355.56;5061562;28;20056;-81
2022/07/11 03:37:04;;;;;;;6.55;3.05;;;;;;;-141.50;100.00;63355.56;5052743;28;20486;-79
2022/07/11 03:39:31;;;;;;;10.85;2.88;;;;;;;-141.50;100.00;63355.56;5038492;28;20445;-79
2022/07/11 03:41:58;;;;;;;11.23;2.83;;;;;;;-141.50;100.00;63355.56;5037154;28;20052;-80
2022/07/11 03:44:24;;;;;;;7.80;3.05;;;;;;;-141.50;100.00;63355.56;5054445;28;20048;-80
2022/07/11 03:46:51;;;;;;;10.95;3.08;;;;;;;-141.50;100.00;63355.56;5054880;28;20073;-80
2022/07/11 03:49:18;;;;;;;8.73;2.90;;;;;;;-141.50;100.00;63355.56;5037852;28;20053;-80
2022/07/11 03:51:44;;;;;;;8.50;3.25;;;;;;;-141.50;100.00;63355.56;5034751;28;20136;-80
2022/07/11 03:54:11;;;;;;;8.75;3.00;;;;;;;-141.50;100.00;63355.56;5031927;28;20065;-80
2022/07/11 03:56:37;;;;;;;6.10;2.90;;;;;;;-141.50;100.00;63355.56;5036263;28;20069;-81
2022/07/11 03:59:04;;;;;;;11.10;3.20;;;;;;;-141.50;100.00;63355.56;5032918;28;20045;-80
2022/07/11 04:01:30;;;;;;;8.07;2.63;;;;;;;-141.50;100.00;63355.56;5032397;28;20069;-80
2022/07/11 04:03:57;;;;;;;9.75;3.38;;;;;;;-141.50;100.00;63355.56;5032311;28;20049;-80
2022/07/11 04:06:23;;;;;;;8.05;3.30;;;;;;;-141.50;100.00;63355.56;5041122;28;20045;-81
2022/07/11 04:08:50;;;;;;;12.32;3.33;;;;;;;-141.50;100.00;63355.56;5051736;28;20592;-79
2022/07/11 04:11:19;;;;;;;7.60;2.70;;;;;;;-141.50;100.00;63355.56;5051966;28;20103;-79
2022/07/11 04:13:46;;;;;;;8.80;2.97;;;;;;;-141.50;100.00;63355.56;5051856;28;20076;-79
2022/07/11 04:16:13;;;;;;;8.50;2.85;;;;;;;-141.50;100.00;63355.56;5052352;28;20112;-80
2022/07/11 04:18:40;;;;;;;9.23;3.10;;;;;;;-141.50;100.00;63355.56;5051555;28;20110;-79
2022/07/11 04:21:07;;;;;;;7.07;3.00;;;;;;;-141.50;100.00;63355.56;5031511;28;20135;-80
2022/07/11 04:23:36;;;;;;;5.55;2.47;;;;;;;-141.50;100.00;63355.56;5048351;28;20052;-78
2022/07/11 04:26:03;;;;;;;7.55;2.80;;;;;;;-141.50;100.00;63355.56;5051261;28;20128;-79
2022/07/11 04:28:30;;;;;;;7.55;2.55;;;;;;;-141.50;100.00;63355.56;5052971;28;20049;-79
2022/07/11 04:30:57;;;;;;;8.32;2.60;;;;;;;-141.50;100.00;63355.56;5051579;28;20053;-79
2022/07/11 04:33:24;;;;;;;10.55;2.72;;;;;;;-141.50;100.00;63355.56;5051405;28;20049;-79
2022/07/11 04:35:50;;;;;;;8.73;2.65;;;;;;;-141.50;100.00;63355.56;5051257;28;20454;-79
2022/07/11 04:38:21;;;;;;;7.93;2.83;;;;;;;-141.50;100.00;63355.56;5051596;28;20076;-80
2022/07/11 04:40:50;;;;;;;6.45;2.40;;;;;;;-141.50;100.00;63355.56;5049952;28;20057;-79
2022/07/11 04:43:17;;;;;;;7.88;2.30;;;;;;;-141.50;100.00;63355.56;5050511;28;20460;-79
2022/07/11 04:45:44;;;;;;;8.30;2.60;;;;;;;-141.50;100.00;63355.56;5048733;28;20054;-79
2022/07/11 04:48:10;;;;;;;6.57;2.70;;;;;;;-141.50;100.00;63355.56;5051102;28;20716;-79
2022/07/11 04:50:37;;;;;;;10.52;2.47;;;;;;;-141.50;100.00;63355.56;5032718;28;20060;-79
2022/07/11 04:53:04;;;;;;;6.78;2.10;;;;;;;-141.50;100.00;63355.56;5052712;28;20072;-79
2022/07/11 04:55:30;;;;;;;10.25;2.58;;;;;;;-141.50;100.00;63355.56;5051316;28;20053;-79
2022/07/11 04:57:57;;;;;;;8.02;2.33;;;;;;;-141.50;100.00;63355.56;5035916;28;20063;-79
2022/07/11 05:00:24;;;;;;;10.30;2.40;;;;;;;-141.50;100.00;63355.56;5053411;28;20110;-78
2022/07/11 05:02:51;;;;;;;5.53;1.90;;;;;;;-141.50;100.00;63355.56;5052682;28;20091;-79
2022/07/11 05:05:19;;;;;;;9.25;2.22;;;;;;;-141.50;100.00;63355.56;5033404;28;20148;-79
2022/07/11 05:07:46;;;;;;;3.67;1.67;;;;;;;-141.50;100.00;63355.56;5054059;28;20105;-79
2022/07/11 05:10:13;;;;;;;4.82;1.73;;;;;;;-141.50;100.00;63355.56;5052358;28;20052;-78
2022/07/11 05:12:43;;;;;;;6.93;2.10;;;;;;;-141.50;100.00;63355.56;5050071;28;20049;-79
2022/07/11 05:15:10;;;;;;;6.75;1.98;;;;;;;-141.50;100.00;63355.56;5052153;28;20049;-80
2022/07/11 05:17:36;;;;;;;9.15;1.85;;;;;;;-141.50;100.00;63355.56;5033185;28;20053;-78
2022/07/11 05:20:09;;;;;;;9.85;2.25;;;;;;;-141.50;100.00;63355.56;5050605;28;20501;-78
2022/07/11 05:22:35;;;;;;;7.70;2.15;;;;;;;-141.50;100.00;63355.56;5051140;28;20071;-79
2022/07/11 05:25:02;;;;;;;6.88;2.17;;;;;;;-141.50;100.00;63355.56;5049822;28;20429;-79
2022/07/11 05:27:29;;;;;;;9.00;1.90;;;;;;;-141.50;100.00;63355.56;5053387;28;20083;-79
2022/07/11 05:29:55;;;;;;;10.48;1.88;;;;;;;-141.50;100.00;63355.56;5052290;28;20052;-78
2022/07/11 05:32:23;;;;;;;9.68;1.98;;;;;;;-141.50;100.00;63355.56;5049566;28;20048;-79
2022/07/11 05:34:50;;;;;;;11.95;2.33;;;;;;;-141.50;100.00;63355.56;5050135;28;20494;-80
2022/07/11 05:37:17;;;;;;;5.10;1.88;;;;;;;-141.50;100.00;63355.56;5052645;28;20053;-79
2022/07/11 05:39:43;;;;;;;9.68;1.90;;;;;;;-141.50;100.00;63355.56;5048790;28;20095;-79
2022/07/11 05:42:10;;;;;;;6.60;1.90;;;;;;;-141.50;100.00;63355.56;5045924;28;20133;-81
2022/07/11 05:44:36;;;;;;;8.20;1.73;;;;;;;-141.50;100.00;63355.56;5049795;28;20049;-81
2022/07/11 05:47:03;;;;;;;9.05;1.88;;;;;;;-141.50;100.00;63355.56;5049545;28;20091;-80
2022/07/11 05:49:31;;;;;;;7.72;1.88;;;;;;;-141.50;100.00;63355.56;5039571;28;20286;-82
2022/07/11 05:51:58;;;;;;;5.45;1.45;;;;;;;-141.50;100.00;63355.56;5055950;28;20059;-82
2022/07/11 05:54:25;;;;;;;8.90;1.50;;;;;;;-141.50;100.00;63355.56;5057451;28;20550;-80
2022/07/11 05:56:51;;;;;;;10.85;1.92;;;;;;;-141.50;100.00;63355.56;5052665;28;20049;-78
2022/07/11 05:59:18;;;;;;;14.02;1.88;;;;;;;-141.50;100.00;63355.56;5060866;28;20130;-81
2022/07/11 06:01:44;;;;;;;4.30;1.50;;;;;;;-141.50;100.00;63355.56;5069242;28;20215;-80
2022/07/11 06:04:12;;;;;;;6.38;1.48;;;;;;;-141.50;100.00;63355.56;5074741;28;20041;-79
2022/07/11 06:06:40;;;;;;;9.85;1.40;;;;;;;-141.50;100.00;63355.56;5064130;28;20044;-81
2022/07/11 06:09:06;;;;;;;9.25;1.23;;;;;;;-141.50;100.00;63355.56;5053272;28;20076;-81
2022/07/11 06:11:33;;;;;;;8.05;1.23;;;;;;;-141.50;100.00;63355.56;5043203;28;20085;-81
2022/07/11 06:14:00;;;;;;;8.38;1.02;;;;;;;-141.50;100.00;63355.56;5049305;28;20052;-79
2022/07/11 06:16:27;;;;;;;9.35;1.20;;;;;;;-141.50;100.00;63355.56;5049616;28;20131;-79
2022/07/11 06:18:54;;;;;;;4.47;1.10;;;;;;;-141.50;100.00;63355.56;5024288;28;20053;-80
2022/07/11 06:21:21;;;;;;;3.45;1.13;;;;;;;-141.50;100.00;63355.56;5052754;28;20064;-79
2022/07/11 06:23:48;;;;;;;5.45;1.42;;;;;;;-141.50;100.00;63355.56;5052547;28;20049;-79
2022/07/11 06:26:15;;;;;;;3.92;1.67;;;;;;;-141.50;100.00;63355.56;5055045;28;20056;-79
2022/07/11 06:28:42;;;;;;;6.95;1.48;;;;;;;-141.50;100.00;63355.56;5054156;28;20045;-78
2022/07/11 06:31:09;;;;;;;6.07;1.20;;;;;;;-141.50;100.00;63355.56;5054079;28;20049;-77
2022/07/11 06:33:36;;;;;;;8.07;1.30;;;;;;;-141.50;100.00;63355.56;5039141;28;20045;-80
2022/07/11 06:36:04;;;;;;;3.75;0.90;;;;;;;-141.50;100.00;63355.56;5053535;28;20513;-80
2022/07/11 06:38:32;;;;;;;5.28;1.13;;;;;;;-141.50;100.00;63355.56;5051367;28;20095;-79
2022/07/11 06:40:59;;;;;;;3.80;1.25;;;;;;;-141.50;100.00;63355.56;5052753;28;20144;-80
2022/07/11 06:43:25;;;;;;;4.50;1.20;;;;;;;-141.50;100.00;63355.56;5052537;28;20084;-79
2022/07/11 06:45:52;;;;;;;5.97;1.10;;;;;;;-141.50;100.00;63355.56;5054016;28;20413;-80
2022/07/11 06:48:20;;;;;;;7.13;1.00;;;;;;;-141.50;100.00;63355.56;5048663;28;20456;-80
2022/07/11 06:50:47;;;;;;;2.33;0.70;;;;;;;-141.50;100.00;63355.56;5053648;28;20633;-80
2022/07/11 06:53:14;;;;;;;4.47;1.00;;;;;;;-141.50;100.00;63355.56;5050931;28;20130;-79
2022/07/11 06:55:40;;;;;;;4.32;0.80;;;;;;;-141.50;100.00;63355.56;5051799;28;20057;-78
2022/07/11 06:58:08;;;;;;;2.75;1.08;;;;;;;-141.50;100.00;63355.56;5052491;28;20114;-80
2022/07/11 07:00:50;;;;;;;2.88;1.00;;;;;;;-141.50;100.00;63355.56;5053355;28;20884;-80
2022/07/11 07:03:17;;;;;;;4.00;1.27;;;;;;;-141.50;100.00;63355.56;5035367;28;20048;-81
2022/07/11 07:05:46;;;;;;;3.90;0.95;;;;;;;-141.50;100.00;63355.56;5052490;28;20076;-80
2022/07/11 07:08:13;;;;;;;19.45;6.78;;;;;;;-141.50;100.00;63355.56;5052052;28;20049;-80
2022/07/11 07:10:40;;;;;;;4.85;2.05;;;;;;;-141.50;100.00;63355.56;5051570;28;20049;-80
2022/07/11 07:13:06;;;;;;;5.15;1.00;;;;;;;-141.50;100.00;63355.56;5051722;28;20048;-79
2022/07/11 07:15:33;;;;;;;4.50;0.80;;;;;;;-141.50;100.00;63355.56;5052131;28;20448;-80
2022/07/11 07:17:59;;;;;;;2.20;0.70;;;;;;;-141.50;100.00;63355.56;5051976;28;20421;-80
2022/07/11 07:20:29;;;;;;;2.95;0.80;;;;;;;-141.50;100.00;63355.56;5051684;28;20053;-80
2022/07/11 07:22:56;;;;;;;8.73;0.73;;;;;;;-141.50;100.00;63355.56;5051915;28;20051;-79
2022/07/11 07:25:23;;;;;;;5.25;0.93;;;;;;;-141.50;100.00;63355.56;5051687;28;20057;-79
2022/07/11 07:27:49;;;;;;;3.45;0.70;;;;;;;-141.50;100.00;63355.56;5046679;28;20176;-79
2022/07/11 07:30:16;;;;;;;5.00;0.90;;;;;;;-141.50;100.00;63355.56;5052127;28;20140;-79
2022/07/11 07:32:42;;;;;;;3.17;0.80;;;;;;;-141.50;100.00;63355.56;5052105;28;20076;-80
2022/07/11 07:35:09;;;;;;;6.05;0.70;;;;;;;-141.50;100.00;63355.56;5052575;28;20076;-80
2022/07/11 07:37:35;;;;;;;2.40;0.73;;;;;;;-141.50;100.00;63355.56;5033251;28;20080;-79
2022/07/11 07:40:02;;;;;;;6.47;0.73;;;;;;;-141.50;100.00;63355.56;5051615;28;20398;-79
2022/07/11 07:42:29;;;;;;;3.63;0.82;;;;;;;-141.50;100.00;63355.56;5051491;28;20102;-80
2022/07/11 07:44:55;;;;;;;2.53;0.85;;;;;;;-141.50;100.00;63355.56;5051994;28;20128;-80
2022/07/11 07:47:22;;;;;;;5.65;1.00;;;;;;;-141.50;100.00;63355.56;5049641;28;20053;-80
2022/07/11 07:49:48;;;;;;;4.15;0.82;;;;;;;-141.50;100.00;63355.56;5030136;28;20069;-80
2022/07/11 07:52:15;;;;;;;6.53;0.80;;;;;;;-141.50;100.00;63355.56;5030344;28;20077;-80
2022/07/11 07:54:41;;;;;;;2.50;0.65;;;;;;;-141.50;100.00;63355.56;5031283;28;20454;-79
2022/07/11 07:57:08;;;;;;;3.08;0.68;;;;;;;-141.50;100.00;63355.56;5032417;28;20081;-77
2022/07/11 07:59:35;;;;;;;2.90;0.80;;;;;;;-141.50;100.00;63355.56;5032405;28;20076;-79
2022/07/11 08:02:02;;;;;;;7.25;0.73;;;;;;;-141.50;100.00;63355.56;5047673;28;20484;-80
2022/07/11 08:04:29;;;;;;;2.75;0.50;;;;;;;-141.50;100.00;63355.56;5051337;28;20060;-78
2022/07/11 08:06:59;;;;;;;2.08;0.60;;;;;;;-141.50;100.00;63355.56;5050578;28;20056;-79
2022/07/11 08:09:26;;;;;;;2.40;0.60;;;;;;;-141.50;100.00;63355.56;5050536;28;20389;-78
2022/07/11 08:11:52;;;;;;;3.50;0.57;;;;;;;-141.50;100.00;63355.56;5051386;28;20091;-79
2022/07/11 08:14:19;;;;;;;6.40;0.60;;;;;;;-141.50;100.00;63355.56;5051572;28;20143;-79
2022/07/11 08:16:47;;;;;;;1.58;0.40;;;;;;;-141.50;100.00;63355.56;5051578;28;20052;-79
2022/07/11 08:19:14;;;;;;;2.05;0.70;;;;;;;-141.50;100.00;63355.56;5050249;28;20071;-80
2022/07/11 08:21:41;;;;;;;1.85;0.57;;;;;;;-141.50;100.00;63355.56;5050440;28;20080;-78
2022/07/11 08:24:08;;;;;;;4.43;0.60;;;;;;;-141.50;100.00;63355.56;5051535;28;20080;-82
2022/07/11 08:26:35;;;;;;;3.55;0.60;;;;;;;-141.50;100.00;63355.56;5052975;28;20056;-80
2022/07/11 08:29:02;;;;;;;4.97;0.80;;;;;;;-141.50;100.00;63355.56;5052415;28;20136;-80
2022/07/11 08:31:29;;;;;;;2.80;0.70;;;;;;;-141.50;100.00;63355.56;5052206;28;20084;-81
2022/07/11 08:33:58;;;;;;;2.35;0.60;;;;;;;-141.50;100.00;63355.56;5049282;28;20048;-81
2022/07/11 08:36:24;;;;;;;8.27;0.50;;;;;;;-141.50;100.00;63355.56;5050652;28;20061;-80
2022/07/11 08:38:51;;;;;;;1.73;0.65;;;;;;;-141.50;100.00;63355.56;5049028;28;20053;-81
2022/07/11 08:41:19;;;;;;;3.58;0.50;;;;;;;-141.50;100.00;63355.56;5050211;28;20084;-78
2022/07/11 08:43:48;;;;;;;3.60;0.70;;;;;;;-141.50;100.00;63355.56;5050349;28;20060;-81
2022/07/11 08:46:15;;;;;;;4.15;0.60;;;;;;;-141.50;100.00;63355.56;5050125;28;20076;-78
2022/07/11 08:48:42;;;;;;;3.05;0.60;;;;;;;-141.50;100.00;63355.56;5036611;28;20225;-79
2022/07/11 08:51:09;;;;;;;5.72;0.88;;;;;;;-141.50;100.00;63355.56;5029701;28;20053;-80
2022/07/11 08:53:42;;;;;;;3.63;0.70;;;;;;;-141.50;100.00;63355.56;5029601;28;20620;-80
2022/07/11 08:56:16;;;;;;;4.82;0.50;;;;;;;-141.50;100.00;63355.56;5044701;28;20052;-80
2022/07/11 08:58:47;;;;;;;2.92;0.70;;;;;;;-141.50;100.00;63355.56;5032701;28;20049;-81
2022/07/11 09:01:29;;;;;;;2.53;0.60;;;;;;;-141.50;100.00;63355.56;5033679;28;20048;-80
2022/07/11 09:03:56;;;;;;;2.55;0.40;;;;;;;-141.50;100.00;63355.56;5051333;28;20049;-81
2022/07/11 09:06:23;;;;;;;3.47;0.68;;;;;;;-141.50;100.00;63355.56;5050694;28;20094;-79
2022/07/11 09:08:50;;;;;;;2.80;0.52;;;;;;;-141.50;100.00;63355.56;5036583;28;20140;-79
2022/07/11 09:11:16;;;;;;;1.30;0.50;;;;;;;-141.50;100.00;63355.56;5030610;28;20089;-81
2022/07/11 09:13:43;;;;;;;1.20;0.50;;;;;;;-141.50;100.00;63355.56;5030913;28;20053;-82
2022/07/11 09:16:09;;;;;;;2.47;0.40;;;;;;;-141.50;100.00;63355.56;5031982;28;20555;-79
2022/07/11 09:18:42;;;;;;;1.80;0.57;;;;;;;-141.50;100.00;63355.56;5035546;28;20085;-80
2022/07/11 09:26:50;;;;;;;3.05;0.50;;;;;;;-141.50;100.00;63355.56;5038780;28;20152;-79
2022/07/11 09:29:28;;;;;;;3.58;0.60;;;;;;;-141.50;100.00;63355.56;5056427;28;20102;-81
2022/07/11 09:31:54;;;;;;;1.65;0.40;;;;;;;-141.50;100.00;63355.56;5042678;28;20045;-80
2022/07/11 09:34:27;;;;;;;1.85;0.50;;;;;;;-141.50;100.00;63355.56;5038044;28;20103;-80
2022/07/11 09:36:55;;;;;;;3.15;0.50;;;;;;;-141.50;100.00;63355.56;5034793;28;20059;-79
2022/07/11 09:39:28;;;;;;;3.30;0.52;;;;;;;-141.50;100.00;63355.56;5034055;28;20053;-79
2022/07/11 09:41:56;;;;;;;4.95;0.60;;;;;;;-141.50;100.00;63355.56;5037752;28;20111;-79
2022/07/11 09:44:33;;;;;;;4.55;0.57;;;;;;;-141.50;100.00;63355.56;5033365;28;20053;-80
2022/07/11 09:47:07;;;;;;;2.20;0.50;;;;;;;-141.50;100.00;63355.56;5040517;28;20132;-79
2022/07/11 09:49:37;;;;;;;5.00;0.73;;;;;;;-141.50;100.00;63355.56;5031743;28;20087;-79
2022/07/11 09:52:06;;;;;;;1.38;0.40;;;;;;;-141.50;100.00;63355.56;5023498;28;20273;-80
2022/07/11 09:54:33;;;;;;;1.85;0.47;;;;;;;-141.50;100.00;63355.56;5053231;28;20090;-80
2022/07/11 09:57:09;;;;;;;2.05;0.57;;;;;;;-141.50;100.00;63355.56;5047858;28;20199;-80
2022/07/11 09:59:37;;;;;;;1.00;0.40;;;;;;;-141.50;100.00;63355.56;5020384;28;20069;-81
2022/07/11 10:02:05;;;;;;;0.80;0.40;;;;;;;-141.50;100.00;63355.56;5019507;28;20045;-81
2022/07/11 10:04:31;;;;;;;5.03;0.47;;;;;;;-141.50;100.00;63355.56;5040072;28;20141;-80
2022/07/11 10:06:58;;;;;;;1.75;0.40;;;;;;;-141.50;100.00;63355.56;5020182;28;20390;-80
2022/07/11 10:09:25;;;;;;;0.68;0.35;;;;;;;-141.50;100.00;63355.56;5036687;28;20050;-80
2022/07/11 10:11:52;;;;;;;2.00;0.60;;;;;;;-141.50;100.00;63355.56;5036717;28;20120;-80
2022/07/11 10:14:19;;;;;;;2.45;0.60;;;;;;;-141.50;100.00;63355.56;5038912;28;20438;-80
2022/07/11 10:17:01;;;;;;;6.13;0.68;;;;;;;-141.50;100.00;63355.56;5050347;28;20029;-79
2022/07/11 10:19:49;;;;;;;2.63;0.40;;;;;;;-141.50;100.00;63355.56;5068433;28;20084;-80
2022/07/11 10:22:25;;;;;;;0.80;0.60;;;;;;;-141.50;100.00;63355.56;5060392;28;20064;-81
2022/07/11 10:25:01;;;;;;;1.10;0.32;;;;;;;-141.50;100.00;63355.56;5047213;28;20064;-79
2022/07/11 10:27:36;;;;;;;1.85;0.50;;;;;;;-141.50;100.00;63355.56;5066851;28;20064;-79
2022/07/11 10:30:07;;;;;;;1.63;0.45;;;;;;;-141.50;100.00;63355.56;5065485;28;20128;-80
2022/07/11 10:32:57;;;;;;;3.67;0.40;;;;;;;-141.50;100.00;63355.56;5061105;28;20053;-80
2022/07/11 10:35:24;;;;;;;0.90;0.30;;;;;;;-141.50;100.00;63355.56;5061384;28;20061;-81
2022/07/11 10:37:54;;;;;;;6.40;0.52;;;;;;;-141.50;100.00;63355.56;5066407;28;20045;-80
2022/07/11 10:40:50;;;;;;;1.50;0.47;;;;;;;-141.50;100.00;63355.56;5064679;28;20056;-79
2022/07/11 10:43:19;;;;;;;1.75;0.50;;;;;;;-141.50;100.00;63355.56;5062683;28;20076;-79
2022/07/11 10:46:20;;;;;;;1.70;0.40;;;;;;;-141.50;100.00;63355.56;5062997;28;20045;-80
2022/07/11 10:48:50;;;;;;;2.13;0.70;;;;;;;-141.50;100.00;63355.56;5044195;28;20094;-79
2022/07/11 10:51:19;;;;;;;1.70;0.47;;;;;;;-141.50;100.00;63355.56;5048426;28;20053;-80
2022/07/11 10:53:49;;;;;;;1.77;0.50;;;;;;;-141.50;100.00;63355.56;5046959;28;20079;-80
2022/07/11 10:56:35;;;;;;;1.40;0.40;;;;;;;-141.50;100.00;63355.56;5065338;28;20037;-80
2022/07/11 10:59:20;;;;;;;2.92;0.30;;;;;;;-141.50;100.00;63355.56;5059458;28;20080;-80
2022/07/11 11:02:12;;;;;;;0.88;0.30;;;;;;;-141.50;100.00;63355.56;5059257;28;20045;-79
2022/07/11 11:04:50;;;;;;;1.23;0.40;;;;;;;-141.50;100.00;63355.56;5064140;28;20052;-79
2022/07/11 11:07:41;;;;;;;3.83;0.60;;;;;;;-141.50;100.00;63355.56;5043775;28;20052;-79
2022/07/11 11:10:29;;;;;;;4.70;0.50;;;;;;;-141.50;100.00;63355.56;5057339;28;20677;-81
2022/07/11 11:13:05;;;;;;;2.15;0.50;;;;;;;-141.50;100.00;63355.56;5055435;28;20061;-80
2022/07/11 11:15:32;;;;;;;2.40;0.50;;;;;;;-141.50;100.00;63355.56;5055961;28;20045;-80
2022/07/11 11:18:24;;;;;;;3.75;0.47;;;;;;;-141.50;100.00;63355.56;5053946;28;20052;-81
2022/07/11 11:21:00;;;;;;;1.02;0.60;;;;;;;-141.50;100.00;63355.56;5036873;28;20045;-80